Time;durP1;ratioP1;P1;durP2;ratioP2;P2;SDS_P1;SDS_P2;PMS_P1;PMS_P2;Temp;Humidity;BMP_temperature;BMP_pressure;BME280_temperature;BME280_humidity;BME280_pressure;Samples;Min_cycle;Max_cycle;Signal;HPM_P1;HPM_P2
2023/06/27 00:02:13;;;;;;;2.90;1.50;;;;;;;18.42;57.73;99490.98;105842;1259;60394;-72
2023/06/27 00:04:40;;;;;;;2.90;1.50;;;;;;;18.40;57.66;99490.88;105638;1255;60543;-71
2023/06/27 00:07:10;;;;;;;2.10;1.30;;;;;;;18.41;57.76;99491.16;105826;1257;60511;-71
2023/06/27 00:09:38;;;;;;;1.80;1.40;;;;;;;18.40;57.84;99491.45;105943;1254;60459;-71
2023/06/27 00:12:07;;;;;;;1.40;1.30;;;;;;;18.39;57.68;99493.39;105956;1254;64028;-72
2023/06/27 00:14:36;;;;;;;1.20;1.10;;;;;;;18.36;57.61;99489.83;105888;1257;60401;-70
2023/06/27 00:17:12;;;;;;;1.70;1.10;;;;;;;18.32;57.34;99490.08;105931;1258;60431;-72
2023/06/27 00:19:39;;;;;;;1.40;1.20;;;;;;;18.27;57.26;99487.50;105886;1253;65256;-72
2023/06/27 00:22:09;;;;;;;2.10;1.40;;;;;;;18.24;57.31;99479.87;105965;1254;60603;-72
2023/06/27 00:24:37;;;;;;;1.70;1.40;;;;;;;18.24;57.27;99479.95;105830;1254;63694;-72
2023/06/27 00:27:04;;;;;;;2.60;1.40;;;;;;;18.24;57.04;99473.98;105948;1254;60450;-72
2023/06/27 00:29:32;;;;;;;2.00;1.30;;;;;;;18.24;57.16;99470.32;105955;1255;60534;-72
2023/06/27 00:31:59;;;;;;;2.60;1.40;;;;;;;18.22;57.06;99472.14;105863;1257;65154;-72
2023/06/27 00:34:25;;;;;;;1.30;1.20;;;;;;;18.20;57.06;99469.34;105959;1257;60332;-72
2023/06/27 00:36:52;;;;;;;1.80;1.30;;;;;;;18.20;57.35;99469.25;105685;1260;60481;-71
2023/06/27 00:39:19;;;;;;;1.50;1.40;;;;;;;18.18;57.34;99474.05;105676;1259;61004;-71
2023/06/27 00:41:45;;;;;;;1.60;1.50;;;;;;;18.18;57.35;99469.36;105689;1258;60361;-71
2023/06/27 00:44:12;;;;;;;1.50;1.30;;;;;;;18.18;57.36;99471.46;105682;1258;65095;-70
2023/06/27 00:46:39;;;;;;;1.90;1.60;;;;;;;18.19;57.41;99472.66;105732;1254;60520;-70
2023/06/27 00:49:07;;;;;;;1.30;1.20;;;;;;;18.20;57.47;99468.35;105625;1260;63851;-71
2023/06/27 00:51:33;;;;;;;2.50;1.70;;;;;;;18.18;57.49;99462.13;105784;1254;60332;-70
2023/06/27 00:54:00;;;;;;;2.20;2.20;;;;;;;18.18;57.52;99463.45;105740;1254;60405;-72
2023/06/27 00:56:26;;;;;;;1.80;1.50;;;;;;;18.17;57.50;99463.11;105745;1257;60981;-72
2023/06/27 00:58:54;;;;;;;1.60;1.50;;;;;;;18.17;57.60;99460.69;105761;1254;60437;-71
2023/06/27 01:01:21;;;;;;;1.50;1.40;;;;;;;18.17;57.62;99457.27;105791;1257;63729;-71
2023/06/27 01:03:47;;;;;;;2.80;1.70;;;;;;;18.16;57.70;99458.89;105706;1253;60363;-72
2023/06/27 01:06:39;;;;;;;3.00;1.90;;;;;;;18.12;57.77;99454.83;105782;1255;60419;-71
2023/06/27 01:09:11;;;;;;;1.90;1.60;;;;;;;18.12;57.82;99455.69;105684;1258;65206;-71
2023/06/27 01:12:03;;;;;;;2.00;1.80;;;;;;;18.13;57.90;99452.04;105692;1260;60476;-71
2023/06/27 01:14:31;;;;;;;2.10;1.60;;;;;;;18.13;57.96;99452.78;105672;1255;63769;-72
2023/06/27 01:16:58;;;;;;;1.90;1.70;;;;;;;18.12;57.97;99454.87;105801;1257;60530;-72
2023/06/27 01:19:25;;;;;;;2.10;1.90;;;;;;;18.09;57.92;99458.48;105851;1252;60463;-71
2023/06/27 01:21:55;;;;;;;1.80;1.60;;;;;;;18.05;58.10;99460.37;105756;1251;63847;-71
2023/06/27 01:24:25;;;;;;;1.90;1.60;;;;;;;18.01;58.27;99461.89;105850;1254;60451;-71
2023/06/27 01:26:51;;;;;;;2.50;1.90;;;;;;;17.98;58.14;99460.92;105877;1256;71780;-71
2023/06/27 01:29:18;;;;;;;2.30;1.70;;;;;;;17.93;58.47;99458.48;105881;1257;60421;-71
2023/06/27 01:32:14;;;;;;;2.50;1.60;;;;;;;17.88;58.75;99453.03;105909;1254;60438;-72
2023/06/27 01:35:04;;;;;;;2.10;1.60;;;;;;;17.83;58.84;99451.05;105629;1260;64005;-70
2023/06/27 01:37:49;;;;;;;2.10;1.80;;;;;;;17.78;59.01;99453.70;105631;1254;60506;-72
2023/06/27 01:40:18;;;;;;;3.70;1.80;;;;;;;17.70;59.32;99451.89;105617;1254;62578;-72
2023/06/27 01:42:57;;;;;;;3.30;1.70;;;;;;;17.65;59.49;99460.52;105746;1254;60425;-72
2023/06/27 01:45:27;;;;;;;2.20;2.00;;;;;;;17.60;59.62;99462.98;105711;1257;60303;-72
2023/06/27 01:47:54;;;;;;;2.80;2.00;;;;;;;17.54;59.75;99466.20;105700;1257;65231;-73
2023/06/27 01:50:21;;;;;;;2.60;1.80;;;;;;;17.52;59.82;99467.73;105624;1254;60537;-72
2023/06/27 01:52:48;;;;;;;2.60;1.80;;;;;;;17.52;59.88;99467.86;105753;1257;63889;-71
2023/06/27 01:55:15;;;;;;;2.40;1.80;;;;;;;17.52;59.97;99468.44;105802;1258;60418;-71
2023/06/27 01:57:41;;;;;;;4.00;1.90;;;;;;;17.49;60.20;99467.25;105743;1257;60479;-72
2023/06/27 02:00:10;;;;;;;3.50;2.10;;;;;;;17.46;60.22;99467.50;106024;1256;65187;-70
2023/06/27 02:02:43;;;;;;;3.20;1.90;;;;;;;17.45;60.21;99465.64;105996;1254;60504;-71
2023/06/27 02:05:10;;;;;;;4.00;1.80;;;;;;;17.45;60.16;99465.52;105885;1256;63880;-72
2023/06/27 02:07:38;;;;;;;2.10;1.90;;;;;;;17.44;60.25;99461.04;105990;1254;60511;-71
2023/06/27 02:10:06;;;;;;;2.40;1.90;;;;;;;17.44;60.12;99462.99;105958;1253;60406;-71
2023/06/27 02:12:33;;;;;;;2.80;2.20;;;;;;;17.42;60.08;99467.34;105947;1257;64891;-70
2023/06/27 02:14:59;;;;;;;3.40;2.20;;;;;;;17.37;60.24;99469.16;105904;1254;60533;-71
2023/06/27 02:17:26;;;;;;;2.30;2.10;;;;;;;17.34;60.15;99469.88;105870;1254;64072;-72
2023/06/27 02:19:53;;;;;;;3.60;2.10;;;;;;;17.29;60.31;99473.21;105958;1254;60451;-71
2023/06/27 02:22:19;;;;;;;2.60;2.20;;;;;;;17.19;60.63;99475.23;106110;1254;60432;-71
2023/06/27 02:24:46;;;;;;;2.50;2.30;;;;;;;17.19;60.69;99471.45;105943;1254;65059;-71
2023/06/27 02:27:13;;;;;;;2.30;2.00;;;;;;;17.22;60.53;99478.48;105933;1256;60533;-71
2023/06/27 02:29:40;;;;;;;3.40;2.40;;;;;;;17.23;60.60;99478.86;105914;1256;62701;-71
2023/06/27 02:32:06;;;;;;;3.70;2.30;;;;;;;17.21;60.55;99477.03;105920;1256;60497;-71
2023/06/27 02:34:36;;;;;;;2.40;2.20;;;;;;;17.20;60.58;99477.55;106070;1253;60408;-71
2023/06/27 02:37:03;;;;;;;2.60;2.30;;;;;;;17.19;60.66;99484.89;105976;1257;65162;-70
2023/06/27 02:39:30;;;;;;;2.60;2.30;;;;;;;17.16;60.78;99485.48;105739;1257;60333;-71
2023/06/27 02:41:56;;;;;;;2.40;2.20;;;;;;;17.12;60.77;99482.34;105638;1254;64012;-71
2023/06/27 02:44:23;;;;;;;2.70;2.20;;;;;;;17.10;60.88;99477.80;105725;1254;60545;-72
2023/06/27 02:46:52;;;;;;;3.20;2.50;;;;;;;17.11;60.92;99477.68;105831;1254;60543;-71
2023/06/27 02:49:18;;;;;;;3.00;2.30;;;;;;;17.10;60.93;99476.04;105846;1257;64977;-71
2023/06/27 02:51:45;;;;;;;3.70;2.50;;;;;;;17.08;61.14;99479.26;105912;1254;60469;-72
2023/06/27 02:54:12;;;;;;;2.80;2.60;;;;;;;17.09;61.16;99480.95;105913;1257;63826;-70
2023/06/27 02:56:38;;;;;;;4.90;2.50;;;;;;;17.09;61.21;99483.91;105953;1255;60366;-71
2023/06/27 02:59:05;;;;;;;3.20;2.70;;;;;;;17.12;61.15;99484.27;105831;1256;60439;-71
2023/06/27 03:01:32;;;;;;;2.90;2.60;;;;;;;17.13;61.28;99487.27;105705;1256;65105;-71
2023/06/27 03:03:59;;;;;;;5.00;2.70;;;;;;;17.12;61.30;99489.23;105624;1254;60578;-71
2023/06/27 03:06:45;;;;;;;3.30;2.60;;;;;;;17.17;61.34;99493.35;105872;1256;62649;-71
2023/06/27 03:09:12;;;;;;;5.30;2.60;;;;;;;17.24;61.43;99493.56;105803;1254;60443;-71
2023/06/27 03:11:39;;;;;;;3.00;2.70;;;;;;;17.31;61.26;99495.17;105743;1252;60443;-70
2023/06/27 03:14:07;;;;;;;4.10;2.60;;;;;;;17.36;61.33;99491.23;106007;1256;63979;-70
2023/06/27 03:16:36;;;;;;;2.70;2.50;;;;;;;17.39;61.38;99488.70;105800;1254;60446;-71
2023/06/27 03:19:02;;;;;;;3.10;2.50;;;;;;;17.43;61.40;99485.63;105753;1254;62697;-70
2023/06/27 03:21:30;;;;;;;4.50;2.50;;;;;;;17.48;61.41;99480.97;105705;1256;60421;-71
2023/06/27 03:23:57;;;;;;;3.10;2.80;;;;;;;17.52;61.42;99480.10;105648;1257;60597;-70
2023/06/27 03:26:27;;;;;;;4.10;2.60;;;;;;;17.58;61.24;99481.41;105804;1254;64990;-72
2023/06/27 03:28:55;;;;;;;4.10;2.50;;;;;;;17.62;61.13;99481.61;105938;1254;60434;-73
2023/06/27 03:31:22;;;;;;;3.20;2.80;;;;;;;17.67;61.01;99479.86;105934;1254;63864;-71
2023/06/27 03:33:52;;;;;;;3.00;2.70;;;;;;;17.69;60.88;99478.77;105833;1255;60439;-70
2023/06/27 03:36:19;;;;;;;3.00;2.70;;;;;;;17.72;60.80;99477.32;105849;1254;60345;-71
2023/06/27 03:38:47;;;;;;;2.90;2.50;;;;;;;17.76;60.81;99480.20;105839;1254;65004;-71
2023/06/27 03:41:15;;;;;;;3.20;2.80;;;;;;;17.79;60.71;99484.13;105826;1254;60527;-71
2023/06/27 03:43:42;;;;;;;3.90;3.00;;;;;;;17.78;60.45;99481.48;105828;1252;64047;-71
2023/06/27 03:46:12;;;;;;;2.90;2.60;;;;;;;17.75;60.51;99480.58;105821;1254;60466;-71
2023/06/27 03:48:39;;;;;;;4.80;3.10;;;;;;;17.75;60.60;99473.09;106011;1252;60450;-71
2023/06/27 03:51:05;;;;;;;3.10;2.60;;;;;;;17.73;60.58;99471.84;106005;1255;60412;-71
2023/06/27 03:53:34;;;;;;;3.60;2.60;;;;;;;17.74;60.70;99467.13;105895;1252;60415;-71
2023/06/27 03:56:01;;;;;;;3.20;2.90;;;;;;;17.77;60.75;99466.66;105965;1254;63952;-72
2023/06/27 03:58:29;;;;;;;4.30;2.90;;;;;;;17.78;60.84;99468.46;106036;1254;60434;-69
2023/06/27 04:00:56;;;;;;;4.10;2.90;;;;;;;17.84;60.79;99467.83;105983;1255;60399;-70
2023/06/27 04:03:23;;;;;;;4.10;3.10;;;;;;;17.92;60.61;99463.23;105790;1254;63838;-70
2023/06/27 04:05:50;;;;;;;4.20;3.10;;;;;;;17.94;60.49;99458.54;105763;1257;60501;-71
2023/06/27 04:08:16;;;;;;;3.50;2.70;;;;;;;17.96;60.52;99456.72;105607;1255;64151;-70
2023/06/27 04:10:43;;;;;;;3.90;2.80;;;;;;;18.01;60.43;99451.29;105718;1254;60498;-71
2023/06/27 04:13:10;;;;;;;3.70;3.00;;;;;;;18.06;60.46;99457.30;105805;1254;60425;-71
2023/06/27 04:15:39;;;;;;;4.30;2.70;;;;;;;18.11;60.25;99458.23;105800;1254;60546;-71
2023/06/27 04:18:08;;;;;;;4.00;3.10;;;;;;;18.17;60.35;99456.61;105872;1254;60439;-71
2023/06/27 04:20:35;;;;;;;3.10;2.80;;;;;;;18.24;60.36;99458.89;105688;1254;64015;-71
2023/06/27 04:23:04;;;;;;;3.10;2.80;;;;;;;18.32;60.22;99456.57;105819;1257;60440;-71
2023/06/27 04:25:33;;;;;;;4.60;2.60;;;;;;;18.39;60.11;99458.91;105816;1257;60482;-71
2023/06/27 04:28:01;;;;;;;3.20;2.90;;;;;;;18.44;59.81;99457.56;105881;1256;65151;-71
2023/06/27 04:30:28;;;;;;;5.80;3.10;;;;;;;18.44;59.41;99451.15;105917;1254;60530;-71
2023/06/27 04:32:55;;;;;;;3.90;3.30;;;;;;;18.42;59.37;99450.67;105841;1257;63822;-71
2023/06/27 04:35:23;;;;;;;3.90;3.20;;;;;;;18.42;59.35;99453.38;105939;1254;60427;-71
2023/06/27 04:37:51;;;;;;;4.60;3.00;;;;;;;18.41;59.26;99452.30;105958;1257;60418;-71
2023/06/27 04:40:18;;;;;;;3.80;3.10;;;;;;;18.42;59.29;99448.98;105933;1257;65247;-71
2023/06/27 04:42:45;;;;;;;3.30;2.80;;;;;;;18.45;59.28;99446.63;105891;1252;60296;-71
2023/06/27 04:45:12;;;;;;;4.20;3.20;;;;;;;18.47;59.08;99445.70;106039;1254;62578;-71
2023/06/27 04:47:40;;;;;;;5.30;2.80;;;;;;;18.50;59.17;99448.05;105888;1254;60384;-71
2023/06/27 04:50:07;;;;;;;4.70;3.00;;;;;;;18.52;59.19;99446.88;105791;1253;60450;-72
2023/06/27 04:52:34;;;;;;;3.70;3.00;;;;;;;18.57;59.18;99443.29;105784;1254;65232;-71
2023/06/27 04:55:01;;;;;;;3.50;2.80;;;;;;;18.64;59.21;99443.71;105942;1254;60486;-71
2023/06/27 04:57:33;;;;;;;3.50;3.00;;;;;;;18.72;59.07;99437.41;105889;1256;63929;-71
2023/06/27 04:59:59;;;;;;;3.20;2.80;;;;;;;18.81;58.95;99431.48;105784;1254;60462;-72
2023/06/27 05:02:26;;;;;;;3.40;3.10;;;;;;;18.89;58.64;99431.65;105998;1253;60460;-70
2023/06/27 05:04:53;;;;;;;3.80;3.10;;;;;;;18.98;58.59;99431.06;105965;1256;65159;-70
2023/06/27 05:07:20;;;;;;;3.10;2.80;;;;;;;19.02;58.33;99429.61;106034;1254;60532;-69
2023/06/27 05:09:46;;;;;;;4.40;2.70;;;;;;;19.09;58.24;99427.98;106002;1257;62823;-71
2023/06/27 05:12:13;;;;;;;4.70;3.10;;;;;;;19.16;58.14;99430.04;106109;1253;60373;-69
2023/06/27 05:14:40;;;;;;;3.20;2.80;;;;;;;19.21;57.92;99431.48;105997;1254;60440;-71
2023/06/27 05:17:06;;;;;;;5.20;2.90;;;;;;;19.24;57.77;99430.89;106021;1254;63984;-71
2023/06/27 05:19:35;;;;;;;3.70;3.00;;;;;;;19.22;57.79;99426.65;106071;1254;60520;-71
2023/06/27 05:22:02;;;;;;;5.30;3.00;;;;;;;19.23;57.84;99426.73;105816;1254;63811;-72
2023/06/27 05:24:29;;;;;;;4.00;2.70;;;;;;;19.30;57.82;99426.46;105702;1256;60392;-71
2023/06/27 05:26:56;;;;;;;4.10;2.90;;;;;;;19.38;57.67;99427.85;105902;1253;60531;-69
2023/06/27 05:29:22;;;;;;;3.10;2.70;;;;;;;19.43;57.29;99427.20;105979;1254;60527;-71
2023/06/27 05:31:53;;;;;;;3.70;2.80;;;;;;;19.50;57.32;99426.35;105943;1254;60438;-70
2023/06/27 05:34:19;;;;;;;2.90;2.60;;;;;;;19.56;57.10;99422.88;105952;1255;60427;-69
2023/06/27 05:36:46;;;;;;;2.90;2.60;;;;;;;19.57;56.69;99425.20;105978;1254;60450;-71
2023/06/27 05:39:12;;;;;;;3.20;2.90;;;;;;;19.56;56.61;99424.73;105992;1254;61776;-71
2023/06/27 05:41:39;;;;;;;4.10;2.60;;;;;;;19.59;56.79;99423.56;105904;1257;60515;-71
2023/06/27 05:44:07;;;;;;;3.90;2.60;;;;;;;19.64;56.67;99425.22;105925;1254;60303;-71
2023/06/27 05:46:38;;;;;;;3.70;2.70;;;;;;;19.69;56.48;99427.09;105889;1254;64168;-71
2023/06/27 05:49:07;;;;;;;3.00;2.70;;;;;;;19.75;56.00;99427.79;105918;1254;60424;-71
2023/06/27 05:51:34;;;;;;;2.40;2.20;;;;;;;19.81;55.95;99432.17;105815;1254;60536;-71
2023/06/27 05:54:01;;;;;;;3.20;2.10;;;;;;;19.85;55.33;99424.17;105772;1256;65227;-71
2023/06/27 05:56:28;;;;;;;2.70;2.30;;;;;;;19.90;54.74;99419.31;105902;1254;60455;-71
2023/06/27 05:58:55;;;;;;;3.60;2.30;;;;;;;19.96;53.85;99423.11;105984;1256;62731;-71
2023/06/27 06:01:21;;;;;;;2.60;2.40;;;;;;;20.02;53.29;99421.80;105974;1257;60425;-70
2023/06/27 06:03:48;;;;;;;3.00;2.10;;;;;;;20.08;53.15;99426.33;105892;1254;60432;-70
2023/06/27 06:06:15;;;;;;;2.30;2.10;;;;;;;20.15;52.66;99421.91;105760;1253;63749;-70
2023/06/27 06:08:41;;;;;;;2.50;2.20;;;;;;;20.23;52.20;99421.21;105904;1254;60447;-70
2023/06/27 06:11:08;;;;;;;3.40;2.10;;;;;;;20.35;52.13;99421.02;105903;1257;60509;-70
2023/06/27 06:13:35;;;;;;;3.00;2.10;;;;;;;20.48;51.86;99417.83;105879;1253;60371;-70
2023/06/27 06:16:02;;;;;;;3.60;2.00;;;;;;;20.57;51.13;99425.90;105732;1253;60516;-71
2023/06/27 06:18:28;;;;;;;3.60;1.90;;;;;;;20.61;50.00;99427.21;105646;1258;65240;-71
2023/06/27 06:20:55;;;;;;;3.20;2.10;;;;;;;20.59;49.65;99424.04;105548;1256;60517;-70
2023/06/27 06:23:22;;;;;;;2.50;2.00;;;;;;;20.61;50.01;99421.48;105774;1254;64106;-71
2023/06/27 06:25:49;;;;;;;2.30;2.00;;;;;;;20.69;49.97;99416.91;105916;1254;60525;-69
2023/06/27 06:28:16;;;;;;;2.30;2.10;;;;;;;20.80;49.93;99417.80;105879;1256;60351;-69
2023/06/27 06:30:43;;;;;;;3.00;2.00;;;;;;;20.87;49.98;99419.46;105825;1257;61941;-69
2023/06/27 06:33:09;;;;;;;2.90;1.80;;;;;;;20.97;50.03;99425.33;105971;1254;60576;-70
2023/06/27 06:35:36;;;;;;;3.00;1.90;;;;;;;21.05;49.60;99423.08;105836;1254;64004;-70
2023/06/27 06:38:03;;;;;;;2.00;1.80;;;;;;;21.11;49.46;99417.72;105693;1254;60328;-70
2023/06/27 06:40:30;;;;;;;2.60;1.80;;;;;;;21.19;49.35;99419.17;105907;1252;60482;-70
2023/06/27 06:42:57;;;;;;;2.50;1.80;;;;;;;21.27;48.89;99417.66;106029;1256;65000;-70
2023/06/27 06:45:24;;;;;;;2.30;1.70;;;;;;;21.32;48.36;99422.93;105802;1256;60532;-70
2023/06/27 06:47:51;;;;;;;2.20;1.80;;;;;;;21.38;48.08;99422.08;105894;1257;60452;-70
2023/06/27 06:50:18;;;;;;;4.80;2.10;;;;;;;21.44;48.10;99415.48;105831;1254;60815;-71
2023/06/27 06:52:45;;;;;;;6.30;1.60;;;;;;;21.50;47.59;99415.39;105800;1254;60460;-71
2023/06/27 06:55:12;;;;;;;5.10;1.50;;;;;;;21.50;47.13;99414.52;105983;1254;65009;-71
2023/06/27 06:57:39;;;;;;;34.30;3.00;;;;;;;21.55;47.45;99412.19;105917;1254;60474;-71
2023/06/27 07:00:06;;;;;;;3.20;1.80;;;;;;;21.65;47.96;99410.92;105868;1254;60529;-71
2023/06/27 07:02:34;;;;;;;2.10;1.50;;;;;;;21.79;47.96;99415.80;105928;1254;60334;-71
2023/06/27 07:05:01;;;;;;;1.90;1.50;;;;;;;21.89;47.35;99417.83;105671;1254;60479;-71
2023/06/27 07:07:29;;;;;;;15.50;3.80;;;;;;;21.94;47.12;99414.98;105677;1253;65270;-70
2023/06/27 07:09:55;;;;;;;5.10;2.10;;;;;;;22.00;46.85;99414.80;105905;1254;60513;-71
2023/06/27 07:12:23;;;;;;;2.40;1.60;;;;;;;22.03;46.29;99423.23;106010;1254;63866;-70
2023/06/27 07:14:50;;;;;;;1.80;1.50;;;;;;;22.03;45.75;99422.31;105844;1253;60434;-71
2023/06/27 07:17:16;;;;;;;8.80;1.70;;;;;;;22.01;45.70;99417.98;105827;1254;60539;-72
2023/06/27 07:19:43;;;;;;;4.10;1.40;;;;;;;22.03;45.91;99414.61;106084;1254;65294;-73
2023/06/27 07:22:10;;;;;;;2.10;1.60;;;;;;;22.13;46.15;99415.29;105910;1254;60510;-74
2023/06/27 07:24:37;;;;;;;2.00;1.20;;;;;;;22.23;46.12;99411.45;105821;1254;63920;-72
2023/06/27 07:27:04;;;;;;;1.50;1.40;;;;;;;22.30;45.75;99409.48;105819;1254;60530;-73
2023/06/27 07:29:30;;;;;;;1.50;1.30;;;;;;;22.36;45.40;99408.77;105969;1256;60490;-71
2023/06/27 07:31:57;;;;;;;1.80;1.60;;;;;;;22.44;45.30;99412.94;106044;1252;64937;-70
2023/06/27 07:34:24;;;;;;;2.10;1.80;;;;;;;22.52;44.75;99414.15;106029;1257;60996;-70
2023/06/27 07:36:51;;;;;;;6.60;1.50;;;;;;;22.57;44.49;99408.02;106032;1253;64002;-70
2023/06/27 07:39:17;;;;;;;74.20;4.90;;;;;;;22.62;44.29;99407.67;105939;1256;60332;-71
2023/06/27 07:41:44;;;;;;;18.50;2.00;;;;;;;22.69;44.27;99407.28;105834;1252;60462;-71
2023/06/27 07:44:10;;;;;;;20.60;2.30;;;;;;;22.80;44.55;99409.01;105909;1254;65229;-71
2023/06/27 07:46:37;;;;;;;1.80;1.50;;;;;;;22.94;44.35;99410.19;106015;1254;60439;-71
2023/06/27 07:49:04;;;;;;;3.40;1.60;;;;;;;23.03;44.09;99402.41;105934;1254;60526;-70
2023/06/27 07:51:31;;;;;;;2.80;1.70;;;;;;;23.10;44.31;99400.10;105885;1254;60457;-71
2023/06/27 07:54:00;;;;;;;4.20;1.50;;;;;;;23.21;44.49;99404.92;106051;1254;60402;-71
2023/06/27 07:56:27;;;;;;;1.90;1.60;;;;;;;23.31;43.88;99408.64;105929;1254;65042;-71
2023/06/27 07:58:53;;;;;;;1.60;1.40;;;;;;;23.36;43.51;99409.86;105882;1254;60478;-71
2023/06/27 08:01:20;;;;;;;1.40;1.30;;;;;;;23.38;43.55;99412.29;106009;1253;63952;-70
2023/06/27 08:03:47;;;;;;;3.40;1.40;;;;;;;23.42;43.22;99417.89;105821;1256;60555;-72
2023/06/27 08:06:14;;;;;;;5.20;1.50;;;;;;;23.47;42.87;99421.58;105897;1254;60370;-70
2023/06/27 08:08:42;;;;;;;2.90;1.60;;;;;;;23.47;42.47;99411.23;105941;1253;65730;-71
2023/06/27 08:11:09;;;;;;;2.50;1.60;;;;;;;23.46;42.76;99404.85;105935;1256;60529;-68
2023/06/27 08:13:41;;;;;;;1.70;1.50;;;;;;;23.52;43.18;99407.15;105713;1253;64110;-71
2023/06/27 08:16:10;;;;;;;2.50;1.70;;;;;;;23.66;43.09;99404.27;105698;1256;233050;-71
2023/06/27 08:18:37;;;;;;;5.80;1.60;;;;;;;23.81;42.89;99403.56;105881;1254;60533;-72
2023/06/27 08:21:04;;;;;;;1.70;1.40;;;;;;;23.95;42.73;99402.95;105858;1254;60405;-70
2023/06/27 08:23:31;;;;;;;3.10;1.40;;;;;;;24.07;42.64;99400.48;105832;1258;60484;-70
2023/06/27 08:25:58;;;;;;;1.60;1.50;;;;;;;24.18;42.42;99402.73;105922;1256;63815;-70
2023/06/27 08:28:26;;;;;;;3.80;1.40;;;;;;;24.28;42.22;99403.73;105890;1254;60347;-70
2023/06/27 08:30:55;;;;;;;2.20;1.30;;;;;;;24.37;42.17;99398.79;105893;1254;60437;-71
2023/06/27 08:33:23;;;;;;;3.30;1.40;;;;;;;24.49;42.04;99396.16;105886;1256;64913;-71
2023/06/27 08:35:50;;;;;;;3.10;1.50;;;;;;;24.58;41.37;99399.03;105750;1256;60542;-70
2023/06/27 08:38:19;;;;;;;2.50;1.70;;;;;;;24.63;40.98;99395.69;105826;1254;63829;-72
2023/06/27 08:40:45;;;;;;;2.10;1.50;;;;;;;24.65;40.55;99398.81;105740;1253;60423;-71
2023/06/27 08:43:12;;;;;;;3.00;1.60;;;;;;;24.67;40.97;99405.00;105771;1254;60444;-73
2023/06/27 08:45:39;;;;;;;2.60;1.40;;;;;;;24.79;40.70;99406.45;105811;1254;65059;-71
2023/06/27 08:48:06;;;;;;;2.20;1.60;;;;;;;24.92;40.16;99406.63;105915;1254;60535;-71
2023/06/27 08:50:35;;;;;;;5.80;1.50;;;;;;;24.99;39.91;99403.53;105779;1254;64147;-72
2023/06/27 08:53:01;;;;;;;2.10;1.70;;;;;;;25.06;39.83;99400.83;105686;1254;60386;-71
2023/06/27 08:55:47;;;;;;;2.90;1.60;;;;;;;25.18;39.71;99401.94;105734;1254;60457;-71
2023/06/27 08:58:15;;;;;;;4.10;1.70;;;;;;;25.33;39.89;99402.05;105731;1254;65116;-71
2023/06/27 09:00:46;;;;;;;2.50;1.60;;;;;;;25.48;39.58;99398.55;105725;1256;60628;-71
2023/06/27 09:03:13;;;;;;;2.00;1.60;;;;;;;25.59;39.48;99396.65;105664;1259;64504;-72
2023/06/27 09:05:41;;;;;;;1.60;1.50;;;;;;;25.69;39.40;99398.89;105859;1256;60437;-72
2023/06/27 09:08:08;;;;;;;2.50;1.70;;;;;;;25.79;38.80;99404.54;105911;1254;60472;-69
2023/06/27 09:10:35;;;;;;;3.60;1.60;;;;;;;25.84;38.43;99398.12;106009;1253;65762;-69
2023/06/27 09:13:02;;;;;;;2.20;1.60;;;;;;;25.91;38.36;99401.18;105723;1256;60430;-70
2023/06/27 09:15:29;;;;;;;3.60;1.60;;;;;;;26.01;37.86;99404.70;105871;1256;64687;-70
2023/06/27 09:17:56;;;;;;;3.50;1.80;;;;;;;26.01;37.66;99398.80;105778;1256;60437;-69
2023/06/27 09:20:23;;;;;;;3.00;1.50;;;;;;;26.07;38.30;99394.23;105765;1256;60384;-71
2023/06/27 09:22:50;;;;;;;2.10;1.50;;;;;;;26.19;38.58;99392.16;105612;1255;65235;-72
2023/06/27 09:25:19;;;;;;;3.20;1.60;;;;;;;26.34;38.25;99389.50;105801;1254;60491;-72
2023/06/27 09:27:47;;;;;;;4.10;1.60;;;;;;;26.38;37.95;99391.11;105851;1254;63851;-76
2023/06/27 09:30:15;;;;;;;4.80;1.60;;;;;;;26.40;37.76;99394.38;105799;1256;60417;-73
2023/06/27 09:32:55;;;;;;;2.60;1.80;;;;;;;26.42;38.06;99395.55;105783;1253;60454;-71
2023/06/27 09:35:23;;;;;;;1.80;1.60;;;;;;;26.51;38.03;99400.34;105764;1254;65041;-72
2023/06/27 09:38:10;;;;;;;2.60;1.70;;;;;;;26.59;38.04;99399.25;105752;1254;60568;-72
2023/06/27 09:40:40;;;;;;;4.40;2.10;;;;;;;26.69;37.88;99395.86;105773;1254;63936;-72
2023/06/27 09:43:08;;;;;;;2.40;2.10;;;;;;;26.71;37.99;99397.88;105577;1259;60386;-72
2023/06/27 09:45:36;;;;;;;2.40;2.10;;;;;;;26.69;37.80;99395.98;106047;1253;60447;-72
2023/06/27 09:48:03;;;;;;;5.00;2.40;;;;;;;26.69;37.68;99390.39;105892;1254;64982;-72
2023/06/27 09:50:31;;;;;;;2.90;2.00;;;;;;;26.78;38.15;99390.29;105975;1254;61118;-70
2023/06/27 09:52:59;;;;;;;5.20;2.10;;;;;;;26.93;37.98;99382.90;105868;1254;64071;-70
2023/06/27 09:55:26;;;;;;;7.20;2.40;;;;;;;27.01;37.59;99385.71;105780;1256;60427;-70
2023/06/27 09:57:53;;;;;;;13.50;2.80;;;;;;;26.99;37.42;99381.13;105754;1254;60953;-72
2023/06/27 10:00:20;;;;;;;58.90;4.30;;;;;;;26.94;37.65;99387.66;105969;1253;65174;-72
2023/06/27 10:02:51;;;;;;;4.70;2.50;;;;;;;26.87;37.78;99381.36;105837;1253;60352;-71
2023/06/27 10:05:19;;;;;;;15.60;2.80;;;;;;;26.87;37.89;99380.05;105911;1253;64016;-71
2023/06/27 10:07:48;;;;;;;6.20;2.30;;;;;;;26.90;38.19;99386.77;105848;1254;60548;-70
2023/06/27 10:10:15;;;;;;;6.20;2.50;;;;;;;26.98;38.09;99388.10;105963;1254;60444;-72
2023/06/27 10:12:43;;;;;;;3.70;2.50;;;;;;;27.07;38.19;99383.57;105966;1254;65900;-71
2023/06/27 10:15:10;;;;;;;3.70;2.30;;;;;;;27.22;38.20;99382.11;105884;1256;60398;-69
2023/06/27 10:17:38;;;;;;;4.50;2.10;;;;;;;27.41;37.89;99385.14;105788;1253;64117;-69
2023/06/27 10:20:11;;;;;;;2.50;2.30;;;;;;;27.66;37.51;99390.81;105972;1253;60348;-70
2023/06/27 10:22:39;;;;;;;2.40;2.20;;;;;;;27.73;36.54;99391.98;105926;1253;60473;-69
2023/06/27 10:25:06;;;;;;;3.50;2.40;;;;;;;27.72;36.64;99388.77;105903;1253;66201;-70
2023/06/27 10:27:36;;;;;;;5.90;2.30;;;;;;;27.75;36.61;99391.39;105843;1256;60911;-69
2023/06/27 10:30:19;;;;;;;5.50;2.30;;;;;;;27.84;36.89;99385.23;106110;1254;63809;-70
2023/06/27 10:32:47;;;;;;;2.90;2.30;;;;;;;28.06;36.56;99387.80;106027;1256;60307;-69
2023/06/27 10:35:24;;;;;;;3.50;2.20;;;;;;;28.21;35.45;99383.99;106043;1254;60463;-68
2023/06/27 10:38:17;;;;;;;10.20;2.30;;;;;;;28.34;35.91;99386.92;105926;1256;65970;-70
2023/06/27 10:41:02;;;;;;;2.80;2.40;;;;;;;28.48;35.27;99392.29;105829;1254;60428;-69
2023/06/27 10:43:35;;;;;;;3.50;2.40;;;;;;;28.56;35.16;99394.63;105923;1253;63952;-70
2023/06/27 10:46:09;;;;;;;6.20;2.50;;;;;;;28.70;35.18;99397.03;106004;1256;60412;-70
2023/06/27 10:48:48;;;;;;;3.00;2.40;;;;;;;28.84;34.72;99392.42;105613;1253;60549;-69
2023/06/27 10:51:19;;;;;;;3.50;2.20;;;;;;;28.94;34.41;99392.11;105682;1254;65313;-68
2023/06/27 10:54:17;;;;;;;5.40;2.40;;;;;;;29.00;33.83;99390.17;105900;1253;60361;-72
2023/06/27 10:56:51;;;;;;;3.90;2.40;;;;;;;29.11;34.58;99381.95;105871;1254;63981;-72
2023/06/27 10:59:18;;;;;;;4.30;2.40;;;;;;;29.19;33.33;99386.15;105888;1253;60552;-69
2023/06/27 11:02:07;;;;;;;4.50;2.40;;;;;;;29.07;33.42;99383.08;106005;1254;60530;-70
2023/06/27 11:04:43;;;;;;;2.70;2.20;;;;;;;29.08;33.76;99376.55;105794;1256;65937;-74
2023/06/27 11:07:17;;;;;;;2.40;2.20;;;;;;;29.26;34.18;99381.88;105750;1258;60586;-71
2023/06/27 11:09:52;;;;;;;;;;;;;;;29.54;34.18;99376.84;105924;1254;64834;-71
2023/06/27 11:12:19;;;;;;;2.60;2.20;;;;;;;29.79;34.15;99377.14;105971;1253;60424;-72
2023/06/27 11:14:48;;;;;;;4.10;2.40;;;;;;;29.98;33.26;99380.73;105924;1253;60517;-71
2023/06/27 11:17:17;;;;;;;3.20;2.60;;;;;;;30.11;32.41;99382.10;105926;1254;73014;-71
2023/06/27 11:19:44;;;;;;;2.50;2.30;;;;;;;30.17;32.54;99371.96;105966;1254;60453;-70
2023/06/27 11:22:12;;;;;;;5.00;2.40;;;;;;;30.29;32.68;99374.18;105681;1254;72584;-70
2023/06/27 11:24:41;;;;;;;4.70;2.30;;;;;;;30.38;32.68;99373.23;105591;1256;60348;-71
2023/06/27 11:27:08;;;;;;;2.90;2.40;;;;;;;30.51;32.20;99367.54;105884;1254;60431;-71
2023/06/27 11:29:35;;;;;;;5.00;2.50;;;;;;;30.49;31.73;99369.17;105883;1256;65221;-71
2023/06/27 11:32:02;;;;;;;2.80;2.30;;;;;;;30.50;32.45;99371.73;105923;1254;60492;-71